Time;durP1;ratioP1;P1;durP2;ratioP2;P2;SDS_P1;SDS_P2;PMS_P1;PMS_P2;Temp;Humidity;BMP_temperature;BMP_pressure;BME280_temperature;BME280_humidity;BME280_pressure;Samples;Min_cycle;Max_cycle;Signal;HPM_P1;HPM_P2
2022/05/12 00:01:07;;;;;;;3.60;3.13;;;11.20;99.90;;;;;;6275540;28;20639;-67
2022/05/12 00:04:14;;;;;;;3.47;3.15;;;11.10;99.90;;;;;;6274304;28;20250;-68
2022/05/12 00:07:19;;;;;;;5.43;3.03;;;11.10;99.90;;;;;;6274380;28;20228;-66
2022/05/12 00:10:26;;;;;;;4.70;2.67;;;11.20;99.90;;;;;;6274440;28;20236;-67
2022/05/12 00:13:31;;;;;;;3.08;2.83;;;11.10;99.90;;;;;;6274242;28;20231;-66
2022/05/12 00:16:39;;;;;;;3.42;3.13;;;11.10;99.90;;;;;;6274519;28;20251;-65
2022/05/12 00:19:44;;;;;;;5.00;2.95;;;11.10;99.90;;;;;;6274781;28;20701;-65
2022/05/12 00:22:51;;;;;;;3.53;2.67;;;11.10;99.90;;;;;;6273693;28;20250;-70
2022/05/12 00:25:57;;;;;;;2.80;2.58;;;11.00;99.90;;;;;;6274366;28;20231;-67
2022/05/12 00:29:06;;;;;;;4.25;3.10;;;11.10;99.90;;;;;;6273775;28;20231;-66
2022/05/12 00:32:13;;;;;;;3.95;3.33;;;11.00;99.90;;;;;;6272305;28;20240;-66
2022/05/12 00:35:19;;;;;;;3.03;2.80;;;11.00;99.90;;;;;;6274390;28;20626;-67
2022/05/12 00:38:25;;;;;;;4.03;2.78;;;11.00;99.90;;;;;;6273147;28;20713;-68
2022/05/12 00:41:30;;;;;;;5.28;3.33;;;11.00;99.90;;;;;;6273903;28;20208;-67
2022/05/12 00:44:36;;;;;;;3.35;3.10;;;11.00;99.90;;;;;;6273202;28;20223;-67
2022/05/12 00:47:42;;;;;;;4.75;3.05;;;11.10;99.90;;;;;;6273412;28;20238;-66
2022/05/12 00:50:48;;;;;;;4.68;3.47;;;11.10;99.90;;;;;;6272895;28;20208;-67
2022/05/12 00:53:55;;;;;;;5.78;3.78;;;11.10;99.90;;;;;;6272662;28;20702;-67
2022/05/12 00:57:01;;;;;;;4.93;3.03;;;11.20;99.90;;;;;;6271217;28;20544;-67
2022/05/12 01:00:14;;;;;;;4.13;2.90;;;11.20;99.90;;;;;;6273238;28;20223;-67
2022/05/12 01:03:24;;;;;;;4.13;3.30;;;11.20;99.90;;;;;;6272259;28;20239;-67
2022/05/12 01:06:30;;;;;;;4.28;2.67;;;11.20;99.90;;;;;;6273530;28;20214;-67
2022/05/12 01:09:36;;;;;;;4.10;2.80;;;11.20;99.90;;;;;;6272613;28;20262;-68
2022/05/12 01:12:46;;;;;;;5.32;2.92;;;11.20;99.90;;;;;;6272758;28;20227;-67
2022/05/12 01:15:54;;;;;;;4.43;2.80;;;11.30;99.90;;;;;;6273245;28;20208;-66
2022/05/12 01:19:01;;;;;;;7.15;2.95;;;11.20;99.90;;;;;;6272855;28;20234;-67
2022/05/12 01:22:09;;;;;;;3.25;2.97;;;11.20;99.90;;;;;;6274306;28;20227;-67
2022/05/12 01:25:19;;;;;;;3.00;2.80;;;11.20;99.90;;;;;;6274657;28;20212;-67
2022/05/12 01:28:25;;;;;;;3.15;2.83;;;11.20;99.90;;;;;;6275250;28;20251;-67
2022/05/12 01:31:30;;;;;;;5.35;3.00;;;11.20;99.90;;;;;;6278664;28;20216;-66
2022/05/12 01:34:36;;;;;;;5.13;3.03;;;11.30;99.90;;;;;;6295775;28;20295;-65
2022/05/12 01:37:43;;;;;;;3.67;2.72;;;11.20;99.90;;;;;;6286292;28;20239;-67
2022/05/12 01:40:51;;;;;;;3.70;2.97;;;11.20;99.90;;;;;;6280606;28;20206;-67
2022/05/12 01:43:56;;;;;;;6.70;3.13;;;11.10;99.90;;;;;;6274787;28;20242;-66
2022/05/12 01:47:01;;;;;;;4.68;3.03;;;11.10;99.90;;;;;;6272015;28;20204;-67
2022/05/12 01:50:09;;;;;;;3.45;3.03;;;11.10;99.90;;;;;;6272107;28;20574;-68
2022/05/12 01:53:18;;;;;;;3.03;2.92;;;11.10;99.90;;;;;;6270519;28;20224;-67
2022/05/12 01:56:25;;;;;;;7.18;3.42;;;11.10;99.90;;;;;;6271971;28;20204;-68
2022/05/12 01:59:30;;;;;;;3.78;2.83;;;11.10;99.90;;;;;;6253581;28;20236;-67
2022/05/12 02:02:37;;;;;;;7.25;3.22;;;11.10;99.90;;;;;;6271334;28;20223;-67
2022/05/12 02:05:42;;;;;;;7.28;3.22;;;10.90;99.90;;;;;;6271323;28;20200;-67
2022/05/12 02:08:48;;;;;;;6.00;3.60;;;10.90;99.90;;;;;;6271055;28;20246;-67
2022/05/12 02:11:54;;;;;;;5.57;3.97;;;10.90;99.90;;;;;;6270620;28;20327;-68
2022/05/12 02:15:00;;;;;;;3.83;3.10;;;10.90;99.90;;;;;;6271002;28;20223;-69
2022/05/12 02:18:07;;;;;;;4.03;3.55;;;10.90;99.90;;;;;;6270814;28;20241;-67
2022/05/12 02:21:12;;;;;;;9.45;3.72;;;10.90;99.90;;;;;;6271581;28;20208;-67
2022/05/12 02:24:18;;;;;;;7.97;3.78;;;10.90;99.90;;;;;;6270514;28;20235;-67
2022/05/12 02:27:25;;;;;;;4.38;3.92;;;10.80;99.90;;;;;;6269602;28;20228;-67
2022/05/12 02:30:32;;;;;;;3.88;3.30;;;10.90;99.90;;;;;;6271073;28;20222;-67
2022/05/12 02:33:38;;;;;;;4.90;3.72;;;10.90;99.90;;;;;;6271246;28;20232;-68
2022/05/12 02:36:59;;;;;;;5.22;3.15;;;10.90;99.90;;;;;;6271785;28;20215;-67
2022/05/12 02:40:07;;;;;;;4.28;3.63;;;11.00;99.90;;;;;;6270627;28;20661;-67
2022/05/12 02:43:29;;;;;;;3.45;3.25;;;10.90;99.90;;;;;;6269682;28;20239;-67
2022/05/12 02:46:34;;;;;;;7.65;3.67;;;10.90;99.90;;;;;;6271395;28;20204;-67
2022/05/12 02:49:40;;;;;;;6.68;3.50;;;11.00;99.90;;;;;;6271002;28;20244;-67
2022/05/12 02:52:45;;;;;;;4.45;3.35;;;10.90;99.90;;;;;;6270673;28;20245;-67
2022/05/12 02:55:51;;;;;;;7.30;3.38;;;10.90;99.90;;;;;;6271954;28;20204;-66
2022/05/12 02:58:58;;;;;;;4.97;3.63;;;10.90;99.90;;;;;;6272900;28;20243;-67
2022/05/12 03:02:04;;;;;;;9.35;3.55;;;10.90;99.90;;;;;;6272458;28;20212;-67
2022/05/12 03:05:11;;;;;;;6.07;3.00;;;11.00;99.90;;;;;;6263149;28;20208;-68
2022/05/12 03:08:18;;;;;;;6.25;3.83;;;10.90;99.90;;;;;;6270818;28;20654;-67
2022/05/12 03:11:23;;;;;;;7.45;3.70;;;11.00;99.90;;;;;;6271443;28;20239;-67
2022/05/12 03:14:30;;;;;;;4.43;4.00;;;11.00;99.90;;;;;;6272420;28;20223;-68
2022/05/12 03:17:36;;;;;;;7.32;3.60;;;10.90;99.90;;;;;;6273719;28;20231;-67
2022/05/12 03:20:41;;;;;;;5.55;3.55;;;11.00;99.90;;;;;;6275834;28;20216;-68
2022/05/12 03:23:47;;;;;;;5.00;3.58;;;11.00;99.90;;;;;;6273827;28;20246;-66
2022/05/12 03:26:52;;;;;;;8.88;3.88;;;11.00;99.90;;;;;;6275033;28;20212;-67
2022/05/12 03:30:00;;;;;;;4.00;3.45;;;11.00;99.90;;;;;;6275737;28;20618;-67
2022/05/12 03:33:09;;;;;;;6.45;3.38;;;11.00;99.90;;;;;;6274523;28;20334;-67
2022/05/12 03:36:15;;;;;;;5.65;3.50;;;10.90;99.90;;;;;;6275018;28;20212;-66
2022/05/12 03:39:21;;;;;;;3.33;3.13;;;11.00;99.90;;;;;;6275313;28;20242;-67
2022/05/12 03:42:27;;;;;;;5.53;3.47;;;11.00;99.90;;;;;;6275054;28;20245;-67
2022/05/12 03:45:33;;;;;;;6.13;3.50;;;10.90;99.90;;;;;;6275596;28;20204;-68
2022/05/12 03:48:40;;;;;;;4.22;3.13;;;10.90;99.90;;;;;;6274894;28;20235;-67
2022/05/12 03:51:47;;;;;;;5.55;3.20;;;11.00;99.90;;;;;;6275156;28;20214;-68
2022/05/12 03:54:53;;;;;;;11.32;3.95;;;11.10;99.90;;;;;;6273988;28;20548;-66
2022/05/12 03:57:58;;;;;;;5.95;3.10;;;11.10;99.90;;;;;;6274981;28;20236;-68
2022/05/12 04:01:06;;;;;;;6.90;3.30;;;11.10;99.90;;;;;;6273832;28;20224;-67
2022/05/12 04:04:12;;;;;;;8.63;3.03;;;11.20;99.90;;;;;;6274649;28;20243;-68
2022/05/12 04:07:20;;;;;;;3.20;3.00;;;11.20;99.90;;;;;;6274521;28;20246;-67
2022/05/12 04:10:27;;;;;;;4.80;3.08;;;11.20;99.90;;;;;;6274557;28;20236;-69
2022/05/12 04:13:32;;;;;;;6.68;3.08;;;11.20;99.90;;;;;;6274651;28;20231;-67
2022/05/12 04:16:39;;;;;;;11.27;3.75;;;11.10;99.90;;;;;;6274443;28;20665;-66
2022/05/12 04:19:45;;;;;;;5.63;2.75;;;11.10;99.90;;;;;;6274358;28;20227;-67
2022/05/12 04:22:50;;;;;;;5.43;2.80;;;11.20;99.90;;;;;;6274102;28;20232;-66
2022/05/12 04:25:57;;;;;;;6.07;2.95;;;11.20;99.90;;;;;;6273530;28;20204;-67
2022/05/12 04:29:02;;;;;;;2.97;2.55;;;11.30;99.90;;;;;;6273961;28;20286;-66
2022/05/12 04:32:10;;;;;;;5.28;2.70;;;11.30;99.90;;;;;;6273498;28;20650;-67
2022/05/12 04:35:15;;;;;;;6.05;2.22;;;11.30;99.90;;;;;;6274304;28;20214;-66
2022/05/12 04:38:20;;;;;;;5.22;2.63;;;11.40;99.90;;;;;;6274041;28;20227;-66
2022/05/12 04:41:26;;;;;;;6.43;2.70;;;11.30;99.90;;;;;;6275224;28;20232;-69
2022/05/12 04:44:31;;;;;;;6.82;2.38;;;11.30;99.90;;;;;;6274426;28;20228;-66
2022/05/12 04:47:40;;;;;;;4.18;2.85;;;11.30;99.90;;;;;;6274356;28;20686;-67
2022/05/12 04:50:45;;;;;;;6.53;2.80;;;11.40;99.90;;;;;;6275547;28;20215;-67
2022/05/12 04:53:50;;;;;;;6.03;3.00;;;11.40;99.90;;;;;;6274672;28;20234;-66
2022/05/12 04:56:57;;;;;;;5.65;2.80;;;11.40;99.90;;;;;;6257504;28;20218;-67
2022/05/12 05:00:02;;;;;;;2.30;2.10;;;11.50;99.90;;;;;;6275699;28;20204;-67
2022/05/12 05:03:10;;;;;;;5.65;2.45;;;11.50;99.90;;;;;;6275651;28;20228;-67
2022/05/12 05:06:22;;;;;;;5.28;2.50;;;11.50;99.90;;;;;;6275181;28;20200;-67
2022/05/12 05:09:28;;;;;;;4.38;2.45;;;11.60;99.90;;;;;;6273310;28;20234;-67
2022/05/12 05:12:34;;;;;;;6.53;2.17;;;11.60;99.90;;;;;;6272830;28;20247;-66
2022/05/12 05:15:40;;;;;;;7.95;2.65;;;11.60;99.90;;;;;;6273879;28;20208;-66
2022/05/12 05:18:46;;;;;;;8.27;2.30;;;11.60;99.90;;;;;;6273007;28;20236;-67
2022/05/12 05:21:53;;;;;;;11.63;2.58;;;11.60;99.90;;;;;;6272389;28;20639;-67
2022/05/12 05:24:59;;;;;;;7.18;2.58;;;11.60;99.90;;;;;;6272925;28;20208;-67
2022/05/12 05:28:05;;;;;;;7.13;2.83;;;11.60;99.90;;;;;;6272623;28;20228;-67
2022/05/12 05:31:11;;;;;;;8.30;2.58;;;11.70;99.90;;;;;;6272835;28;20212;-66
2022/05/12 05:34:18;;;;;;;9.43;2.13;;;11.80;99.90;;;;;;6272808;28;20663;-68
2022/05/12 05:37:23;;;;;;;7.22;2.20;;;11.90;99.90;;;;;;6271978;28;20526;-67
2022/05/12 05:40:29;;;;;;;8.43;2.28;;;11.90;99.90;;;;;;6273356;28;20566;-68
2022/05/12 05:43:35;;;;;;;8.73;2.55;;;12.00;99.90;;;;;;6272328;28;20254;-67
2022/05/12 05:46:41;;;;;;;5.15;2.40;;;12.00;99.90;;;;;;6273464;28;20214;-67
2022/05/12 05:49:47;;;;;;;6.65;2.30;;;11.90;99.90;;;;;;6272296;28;20231;-68
2022/05/12 05:56:17;;;;;;;5.25;1.80;;;12.10;99.90;;;;;;6271495;28;20215;-67
2022/05/12 05:59:22;;;;;;;6.10;2.35;;;12.20;99.90;;;;;;6272122;28;20610;-67
2022/05/12 06:02:31;;;;;;;5.05;2.35;;;12.20;99.90;;;;;;6271444;28;20246;-69
2022/05/12 06:05:38;;;;;;;5.85;2.53;;;12.20;99.90;;;;;;6272616;28;20200;-66
2022/05/12 06:08:43;;;;;;;6.10;2.10;;;12.30;99.90;;;;;;6270108;28;20239;-66
2022/05/12 06:11:49;;;;;;;12.10;2.20;;;12.40;99.90;;;;;;6271796;28;20275;-66
2022/05/12 06:14:56;;;;;;;4.90;2.17;;;12.50;99.90;;;;;;6271404;28;20211;-67
2022/05/12 06:18:03;;;;;;;7.78;2.35;;;12.70;99.90;;;;;;6272301;28;20258;-67
2022/05/12 06:21:12;;;;;;;5.00;2.00;;;12.80;99.90;;;;;;6272566;28;20227;-67
2022/05/12 06:24:18;;;;;;;8.88;2.10;;;12.90;99.90;;;;;;6272030;28;20227;-68
2022/05/12 06:27:23;;;;;;;12.50;2.15;;;12.90;99.90;;;;;;6271684;28;20246;-66
2022/05/12 06:30:29;;;;;;;6.30;2.03;;;12.90;99.90;;;;;;6272276;28;20204;-68
2022/05/12 06:33:35;;;;;;;7.65;2.13;;;13.00;99.90;;;;;;6271469;28;20318;-67
2022/05/12 06:36:43;;;;;;;3.60;1.92;;;13.00;99.90;;;;;;6271966;28;20219;-68
2022/05/12 06:39:49;;;;;;;3.53;1.95;;;13.00;99.90;;;;;;6272518;28;20690;-67
2022/05/12 06:42:54;;;;;;;5.35;1.70;;;13.20;99.90;;;;;;6272153;28;20617;-67
2022/05/12 06:46:02;;;;;;;9.95;2.13;;;13.20;99.90;;;;;;6254076;28;20203;-67
2022/05/12 06:49:08;;;;;;;11.27;2.30;;;13.30;99.90;;;;;;6286426;28;20232;-66
2022/05/12 06:52:14;;;;;;;3.58;1.67;;;13.40;99.90;;;;;;6282914;28;20246;-66
2022/05/12 06:55:20;;;;;;;4.32;1.63;;;13.40;99.90;;;;;;6278942;28;20207;-66
2022/05/12 06:58:25;;;;;;;8.90;2.40;;;13.40;99.90;;;;;;6277813;28;20239;-68
2022/05/12 07:01:31;;;;;;;7.43;2.17;;;13.40;99.90;;;;;;6278467;28;20204;-68
2022/05/12 07:04:36;;;;;;;6.72;1.80;;;13.40;99.90;;;;;;6276887;28;20228;-67
2022/05/12 07:07:44;;;;;;;3.72;1.90;;;13.40;99.90;;;;;;6276081;28;20601;-67
2022/05/12 07:10:49;;;;;;;6.80;1.77;;;13.40;99.90;;;;;;6277065;28;20264;-67
2022/05/12 07:13:54;;;;;;;4.82;1.80;;;13.50;99.90;;;;;;6276103;28;20712;-69
2022/05/12 07:17:01;;;;;;;7.45;1.90;;;13.60;99.90;;;;;;6275658;28;20200;-67
2022/05/12 07:27:18;;;;;;;4.25;1.60;;;13.30;99.90;;;;;;6273939;28;20230;-68
2022/05/12 07:31:00;;;;;;;6.80;1.98;;;13.30;99.90;;;;;;6276173;28;20210;-66
2022/05/12 07:33:50;;;;;;;5.78;1.90;;;13.30;99.90;;;;;;6275449;28;20342;-67
2022/05/12 07:36:56;;;;;;;11.43;2.10;;;13.30;99.90;;;;;;6275584;28;20208;-68
2022/05/12 07:40:03;;;;;;;2.78;1.88;;;13.30;99.90;;;;;;6275928;28;20211;-67
2022/05/12 07:43:09;;;;;;;7.80;2.15;;;13.30;99.90;;;;;;6275214;28;20244;-68
2022/05/12 07:46:18;;;;;;;5.38;1.58;;;13.30;99.90;;;;;;6275719;28;20204;-68
2022/05/12 07:49:23;;;;;;;9.60;1.83;;;13.30;99.90;;;;;;6275382;28;20677;-67
2022/05/12 07:52:29;;;;;;;7.07;1.70;;;13.20;99.90;;;;;;6274777;28;20546;-67
2022/05/12 07:55:36;;;;;;;5.72;1.50;;;13.20;99.90;;;;;;6275762;28;20631;-68
2022/05/12 07:58:42;;;;;;;6.13;1.52;;;13.20;99.90;;;;;;6275040;28;20615;-68
2022/05/12 08:01:47;;;;;;;6.43;1.55;;;13.20;99.90;;;;;;6275403;28;20553;-67
2022/05/12 08:04:53;;;;;;;7.53;2.03;;;13.10;99.90;;;;;;6274615;28;20224;-66
2022/05/12 08:07:58;;;;;;;4.57;1.67;;;13.10;99.90;;;;;;6274275;28;20240;-66
2022/05/12 08:11:06;;;;;;;4.22;1.90;;;13.10;99.90;;;;;;6275149;28;20572;-67
2022/05/12 08:14:13;;;;;;;4.40;1.70;;;13.30;99.90;;;;;;6274635;28;20623;-68
2022/05/12 08:17:18;;;;;;;3.00;1.60;;;13.40;99.90;;;;;;6273152;28;20318;-68
2022/05/12 08:20:25;;;;;;;18.00;2.00;;;13.40;99.90;;;;;;6275239;28;20204;-67
2022/05/12 08:23:30;;;;;;;3.45;1.70;;;13.40;99.90;;;;;;6273085;28;20244;-67
2022/05/12 08:26:37;;;;;;;2.63;1.50;;;13.40;99.90;;;;;;6274762;28;20200;-67
2022/05/12 08:29:43;;;;;;;2.83;1.63;;;13.30;99.90;;;;;;6273804;28;20238;-67
2022/05/12 08:32:49;;;;;;;7.40;1.80;;;13.30;99.90;;;;;;6273978;28;20230;-68
2022/05/12 08:35:54;;;;;;;5.35;1.55;;;13.30;99.90;;;;;;6274462;28;20210;-67
2022/05/12 08:39:00;;;;;;;6.97;1.67;;;13.30;99.90;;;;;;6273808;28;20238;-66
2022/05/12 08:42:14;;;;;;;2.90;1.70;;;13.20;99.90;;;;;;6274204;28;20204;-68
2022/05/12 08:45:21;;;;;;;3.28;1.42;;;13.30;99.90;;;;;;6274076;28;20262;-68
2022/05/12 08:48:27;;;;;;;5.68;1.83;;;13.40;99.90;;;;;;6273584;28;20228;-69
2022/05/12 08:51:36;;;;;;;3.67;1.50;;;13.40;99.90;;;;;;6274512;28;20206;-67
2022/05/12 08:54:46;;;;;;;5.78;1.63;;;13.40;99.90;;;;;;6274153;28;20232;-67
2022/05/12 08:57:58;;;;;;;5.30;1.42;;;13.50;99.90;;;;;;6272815;28;20240;-68
2022/05/12 09:01:08;;;;;;;2.25;1.48;;;13.60;99.90;;;;;;6272777;28;20530;-68
2022/05/12 09:04:50;;;;;;;4.07;1.80;;;13.60;99.90;;;;;;6273394;28;20235;-67
2022/05/12 09:08:05;;;;;;;4.65;1.35;;;13.60;99.90;;;;;;6246780;28;20236;-66
2022/05/12 09:11:18;;;;;;;7.60;1.40;;;13.50;99.90;;;;;;6273282;28;20224;-68
2022/05/12 09:14:30;;;;;;;3.17;1.50;;;13.50;99.90;;;;;;6273310;28;20647;-66
2022/05/12 09:17:41;;;;;;;4.88;1.50;;;13.60;99.90;;;;;;6273052;28;20224;-66
2022/05/12 09:20:47;;;;;;;6.95;1.80;;;13.60;99.90;;;;;;6272367;28;20219;-67
2022/05/12 09:23:52;;;;;;;5.45;1.40;;;13.60;99.90;;;;;;6272958;28;20702;-67
2022/05/12 09:27:08;;;;;;;2.30;1.60;;;13.60;99.90;;;;;;6272981;28;20282;-68
2022/05/12 09:30:15;;;;;;;4.93;1.50;;;13.60;99.90;;;;;;6273078;28;20227;-68
2022/05/12 09:33:29;;;;;;;4.47;1.38;;;13.70;99.90;;;;;;6271272;28;20224;-67
2022/05/12 09:36:35;;;;;;;2.88;1.50;;;13.90;99.90;;;;;;6273234;28;20208;-68
2022/05/12 09:39:47;;;;;;;4.47;1.30;;;13.90;99.90;;;;;;6272756;28;20306;-67
2022/05/12 09:42:56;;;;;;;4.38;1.50;;;14.00;99.90;;;;;;6272443;28;20246;-67
2022/05/12 09:46:09;;;;;;;5.22;1.40;;;14.00;99.90;;;;;;6272570;28;20226;-67
2022/05/12 09:49:20;;;;;;;6.00;1.33;;;14.00;99.90;;;;;;6272817;28;20658;-67
2022/05/12 09:52:32;;;;;;;2.28;1.40;;;14.10;99.90;;;;;;6272565;28;20227;-68
2022/05/12 09:55:40;;;;;;;3.10;1.35;;;14.20;99.90;;;;;;6272364;28;20215;-67
2022/05/12 09:58:58;;;;;;;2.72;1.60;;;14.30;99.90;;;;;;6272020;28;20231;-68
2022/05/12 10:02:08;;;;;;;3.10;1.15;;;14.30;99.90;;;;;;6272059;28;20200;-67
2022/05/12 10:08:42;;;;;;;2.40;1.08;;;14.30;99.90;;;;;;6271703;28;20237;-68
2022/05/12 10:12:08;;;;;;;4.25;1.20;;;14.40;99.30;;;;;;6272412;28;20238;-67
2022/05/12 10:15:23;;;;;;;3.55;1.10;;;14.50;99.30;;;;;;6271528;28;20296;-67
2022/05/12 10:18:37;;;;;;;3.22;1.40;;;14.50;98.80;;;;;;6271592;28;20236;-68
2022/05/12 10:21:47;;;;;;;9.05;1.25;;;14.50;98.80;;;;;;6272682;28;20196;-67
2022/05/12 10:25:04;;;;;;;4.63;1.10;;;14.60;98.60;;;;;;6271202;28;20243;-65
2022/05/12 10:28:19;;;;;;;2.88;1.08;;;14.70;97.60;;;;;;6271665;28;20547;-66
2022/05/12 10:31:28;;;;;;;4.40;1.02;;;14.80;97.50;;;;;;6272341;28;20208;-66
2022/05/12 10:34:43;;;;;;;5.05;1.58;;;14.80;97.50;;;;;;6271400;28;20240;-66
2022/05/12 10:37:58;;;;;;;3.35;1.00;;;14.80;97.90;;;;;;6271554;28;20236;-67
2022/05/12 10:41:11;;;;;;;5.47;1.02;;;14.70;97.20;;;;;;6272140;28;20204;-67
2022/05/12 10:44:32;;;;;;;0.95;0.90;;;14.80;97.40;;;;;;6271627;28;20235;-68
2022/05/12 10:48:15;;;;;;;2.78;1.08;;;14.80;96.50;;;;;;6271691;28;20231;-68
2022/05/12 10:51:34;;;;;;;2.72;1.33;;;14.80;96.00;;;;;;6271611;28;20206;-67
2022/05/12 10:54:52;;;;;;;1.45;1.35;;;14.90;96.30;;;;;;6271807;28;20231;-67
2022/05/12 10:58:19;;;;;;;5.22;1.02;;;15.10;96.30;;;;;;6271509;28;20238;-65
2022/05/12 11:01:32;;;;;;;4.72;0.85;;;15.20;95.50;;;;;;6271761;28;20210;-67
2022/05/12 11:04:42;;;;;;;6.57;1.20;;;15.20;95.10;;;;;;6271486;28;20231;-67
2022/05/12 11:07:53;;;;;;;5.55;1.40;;;15.40;95.30;;;;;;6271609;28;20246;-67
2022/05/12 11:11:02;;;;;;;8.30;1.10;;;15.50;95.00;;;;;;6271777;28;20236;-67
2022/05/12 11:14:12;;;;;;;3.20;1.10;;;15.50;95.40;;;;;;6271121;28;20236;-67
2022/05/12 11:17:22;;;;;;;3.20;1.10;;;15.70;95.40;;;;;;6271234;28;20266;-66
2022/05/12 11:20:32;;;;;;;5.25;1.08;;;15.70;95.00;;;;;;6271589;28;20626;-68
2022/05/12 11:24:13;;;;;;;3.22;1.25;;;15.80;94.70;;;;;;6271269;28;20236;-68
2022/05/12 11:27:37;;;;;;;1.95;1.08;;;15.80;94.60;;;;;;6240100;28;20235;-67
2022/05/12 11:30:44;;;;;;;5.15;1.10;;;15.90;94.30;;;;;;6271377;28;20629;-68
2022/05/12 11:33:53;;;;;;;3.03;1.70;;;16.00;94.30;;;;;;6270617;28;20607;-66
2022/05/12 11:36:58;;;;;;;1.10;1.05;;;16.00;94.00;;;;;;6275041;28;20223;-68
2022/05/12 11:40:09;;;;;;;1.40;0.93;;;16.10;93.60;;;;;;6275577;28;20208;-68
2022/05/12 11:47:48;;;;;;;1.08;1.00;;;16.30;92.40;;;;;;6274325;28;20247;-68
2022/05/12 11:51:19;;;;;;;1.85;1.75;;;16.30;92.00;;;;;;6276013;28;20204;-67
2022/05/12 11:54:32;;;;;;;1.10;0.93;;;16.30;91.60;;;;;;6274831;28;20228;-68
2022/05/12 11:57:43;;;;;;;2.25;0.77;;;16.20;91.10;;;;;;6275829;28;20238;-67
2022/05/12 12:01:01;;;;;;;2.17;1.10;;;16.30;91.80;;;;;;6276676;28;20214;-67
2022/05/12 12:04:07;;;;;;;2.58;0.90;;;16.30;91.10;;;;;;6280378;28;20326;-68
2022/05/12 12:07:17;;;;;;;2.45;1.05;;;16.30;91.50;;;;;;6294222;28;20232;-67
2022/05/12 12:10:40;;;;;;;3.15;1.00;;;16.10;91.20;;;;;;6295871;28;20287;-66
2022/05/12 12:13:48;;;;;;;2.03;1.10;;;16.20;91.30;;;;;;6276030;28;20231;-67
2022/05/12 12:17:14;;;;;;;4.32;1.10;;;16.20;91.40;;;;;;6274165;28;20569;-67
2022/05/12 12:20:48;;;;;;;4.20;1.20;;;16.40;91.10;;;;;;6275754;28;20227;-67
2022/05/12 12:24:03;;;;;;;4.90;1.10;;;16.50;90.70;;;;;;6274093;28;20245;-67
2022/05/12 12:27:51;;;;;;;1.27;0.90;;;16.60;91.00;;;;;;6274522;28;20239;-68
2022/05/12 12:31:10;;;;;;;1.83;1.20;;;16.70;89.30;;;;;;6256316;28;20682;-68
2022/05/12 12:34:19;;;;;;;2.17;0.85;;;16.70;88.10;;;;;;6276229;28;20231;-68
2022/05/12 12:37:48;;;;;;;19.30;1.48;;;16.70;87.50;;;;;;6277578;28;20238;-68
2022/05/12 12:40:54;;;;;;;2.67;0.98;;;16.80;86.50;;;;;;6278119;28;20210;-67
2022/05/12 12:44:03;;;;;;;3.13;0.88;;;16.80;85.70;;;;;;6275935;28;20235;-67
2022/05/12 12:47:21;;;;;;;1.90;1.08;;;16.90;85.20;;;;;;6273012;28;20327;-68
2022/05/12 12:50:41;;;;;;;0.98;0.98;;;16.90;83.40;;;;;;6274803;28;20204;-68
2022/05/12 12:57:18;;;;;;;3.20;1.20;;;17.00;85.60;;;;;;6273512;28;20234;-66
2022/05/12 13:00:29;;;;;;;3.72;0.75;;;17.10;85.40;;;;;;6274492;28;20204;-67
2022/05/12 13:03:38;;;;;;;1.73;0.90;;;17.10;83.10;;;;;;6273460;28;20224;-67
2022/05/12 13:06:50;;;;;;;0.80;0.80;;;17.10;83.00;;;;;;6273881;28;20239;-67
2022/05/12 13:09:57;;;;;;;1.85;0.90;;;17.20;83.90;;;;;;6272706;28;20200;-67
2022/05/12 13:13:06;;;;;;;3.38;1.10;;;17.30;83.50;;;;;;6273187;28;20650;-68
2022/05/12 13:16:16;;;;;;;1.05;0.90;;;17.30;84.80;;;;;;6274173;28;20208;-67
2022/05/12 13:19:29;;;;;;;7.32;0.95;;;17.40;83.10;;;;;;6273670;28;20242;-65
2022/05/12 13:22:45;;;;;;;5.22;0.73;;;17.60;82.30;;;;;;6273309;28;20236;-67
2022/05/12 13:25:50;;;;;;;2.15;0.70;;;17.60;83.70;;;;;;6273610;28;20218;-67
2022/05/12 13:28:56;;;;;;;0.75;0.75;;;17.80;80.20;;;;;;6273247;28;20231;-67
2022/05/12 13:32:06;;;;;;;3.80;1.05;;;17.60;79.50;;;;;;6272653;28;20215;-66
2022/05/12 13:35:20;;;;;;;1.40;0.80;;;17.60;78.20;;;;;;6273744;28;20204;-68
2022/05/12 13:38:29;;;;;;;1.05;0.80;;;18.10;76.50;;;;;;6271883;28;20232;-68
2022/05/12 13:41:45;;;;;;;4.03;0.80;;;18.10;75.40;;;;;;6273723;28;20200;-66
2022/05/12 13:44:52;;;;;;;2.83;0.80;;;18.20;76.40;;;;;;6272595;28;20247;-67
2022/05/12 13:47:59;;;;;;;1.45;1.17;;;18.10;74.20;;;;;;6272447;28;20235;-67
2022/05/12 13:51:05;;;;;;;3.42;0.90;;;18.20;74.40;;;;;;6272940;28;20214;-67
2022/05/12 13:54:34;;;;;;;0.70;0.70;;;18.10;71.80;;;;;;6272178;28;20232;-68
2022/05/12 13:57:43;;;;;;;0.60;0.60;;;18.00;72.10;;;;;;6272060;28;20236;-67
2022/05/12 14:00:51;;;;;;;1.25;0.80;;;18.10;73.60;;;;;;6272916;28;20204;-67
2022/05/12 14:04:12;;;;;;;3.15;0.90;;;18.20;70.50;;;;;;6256011;28;20228;-67
2022/05/12 14:07:30;;;;;;;1.67;0.93;;;18.30;71.40;;;;;;6274196;28;20226;-67
2022/05/12 14:10:38;;;;;;;0.80;0.70;;;19.00;69.40;;;;;;6275262;28;20224;-67
2022/05/12 14:20:34;;;;;;;2.80;0.70;;;20.10;58.30;;;;;;6272487;28;20485;-68
2022/05/12 14:23:40;;;;;;;1.52;0.80;;;19.40;58.00;;;;;;6271699;28;20240;-69
2022/05/12 14:26:46;;;;;;;5.25;1.25;;;18.90;60.30;;;;;;6271739;28;20236;-67
2022/05/12 14:29:51;;;;;;;1.23;0.68;;;18.30;62.90;;;;;;6271472;28;20243;-68
2022/05/12 14:32:57;;;;;;;0.68;0.68;;;18.10;64.20;;;;;;6271703;28;20239;-67
2022/05/12 14:36:04;;;;;;;1.08;0.80;;;18.10;64.90;;;;;;6272585;28;20589;-67
2022/05/12 14:39:11;;;;;;;1.05;0.77;;;18.30;65.10;;;;;;6271191;28;20231;-69
2022/05/12 14:42:16;;;;;;;0.95;0.88;;;18.20;66.40;;;;;;6271514;28;20240;-67
2022/05/12 14:45:23;;;;;;;1.17;0.80;;;18.30;66.10;;;;;;6272060;28;20204;-67
2022/05/12 14:48:29;;;;;;;3.55;0.80;;;18.40;65.80;;;;;;6271281;28;20235;-69
2022/05/12 14:51:36;;;;;;;2.28;0.80;;;18.30;65.60;;;;;;6272076;28;20229;-68
2022/05/12 14:54:42;;;;;;;2.15;0.80;;;18.10;66.30;;;;;;6271558;28;20227;-67
2022/05/12 14:57:48;;;;;;;2.45;0.90;;;17.90;66.10;;;;;;6271229;28;20231;-67
2022/05/12 15:00:53;;;;;;;0.90;0.90;;;17.70;67.00;;;;;;6271662;28;20208;-66
2022/05/12 15:04:00;;;;;;;2.28;0.70;;;17.80;67.70;;;;;;6270750;28;20708;-67
2022/05/12 15:07:05;;;;;;;4.63;0.80;;;17.60;66.90;;;;;;6271426;28;20218;-66
2022/05/12 15:10:14;;;;;;;1.40;0.85;;;17.60;68.00;;;;;;6272293;28;20678;-70
2022/05/12 15:13:21;;;;;;;1.02;1.00;;;17.60;68.70;;;;;;6275909;28;20227;-67
2022/05/12 15:16:27;;;;;;;1.75;0.70;;;17.60;69.00;;;;;;6275764;28;20508;-67
2022/05/12 15:19:34;;;;;;;3.40;0.80;;;17.60;69.60;;;;;;6275881;28;20227;-67
2022/05/12 15:22:39;;;;;;;3.70;0.90;;;17.60;70.70;;;;;;6274316;28;20226;-67
2022/05/12 15:25:48;;;;;;;3.45;0.70;;;17.70;71.10;;;;;;6275818;28;20216;-67
2022/05/12 15:28:53;;;;;;;3.03;0.80;;;17.70;69.40;;;;;;6275585;28;20238;-68
2022/05/12 15:31:58;;;;;;;0.80;0.80;;;17.70;70.10;;;;;;6274643;28;20196;-67
2022/05/12 15:35:05;;;;;;;1.80;1.00;;;17.70;70.50;;;;;;6277952;28;20235;-69
2022/05/12 15:38:14;;;;;;;4.63;0.80;;;17.70;69.70;;;;;;6274810;28;20251;-67
2022/05/12 15:41:20;;;;;;;2.20;1.70;;;17.70;69.60;;;;;;6275360;28;20230;-68
2022/05/12 15:44:26;;;;;;;1.90;1.05;;;17.60;69.20;;;;;;6275263;28;20250;-67
2022/05/12 15:47:34;;;;;;;1.10;1.00;;;17.60;69.20;;;;;;6275270;28;20224;-67
2022/05/12 15:50:41;;;;;;;1.80;1.35;;;17.50;69.90;;;;;;6274876;28;20246;-67
2022/05/12 15:53:46;;;;;;;3.35;0.70;;;17.40;69.40;;;;;;6274613;28;20247;-67
2022/05/12 15:56:53;;;;;;;2.88;0.85;;;17.40;70.40;;;;;;6275105;28;20204;-68
2022/05/12 15:59:58;;;;;;;2.15;0.80;;;17.40;70.30;;;;;;6275127;28;20222;-67
2022/05/12 16:03:04;;;;;;;2.22;2.13;;;17.50;70.90;;;;;;6275352;28;20224;-67
2022/05/12 16:06:13;;;;;;;2.10;1.30;;;17.50;70.60;;;;;;6275400;28;20211;-69
2022/05/12 16:09:18;;;;;;;2.22;1.05;;;17.50;70.60;;;;;;6274184;28;20696;-66
2022/05/12 16:12:32;;;;;;;1.42;0.88;;;17.40;72.30;;;;;;6250251;28;20245;-68
2022/05/12 16:15:37;;;;;;;1.65;0.68;;;17.40;73.10;;;;;;6250743;28;20588;-67
2022/05/12 16:18:42;;;;;;;3.85;1.20;;;17.40;72.30;;;;;;6249946;28;20722;-65
2022/05/12 16:21:48;;;;;;;4.88;1.50;;;17.40;71.40;;;;;;6250232;28;20215;-67
2022/05/12 16:24:54;;;;;;;1.33;0.88;;;17.40;72.50;;;;;;6249301;28;20694;-68
2022/05/12 16:28:06;;;;;;;1.20;0.80;;;17.30;72.00;;;;;;6249971;28;20240;-67
2022/05/12 16:31:14;;;;;;;2.40;0.70;;;17.30;70.60;;;;;;6249431;28;20372;-68
2022/05/12 16:34:19;;;;;;;4.47;1.10;;;17.20;70.90;;;;;;6249835;28;20232;-68
2022/05/12 16:37:26;;;;;;;1.85;1.00;;;17.10;72.00;;;;;;6249106;28;20228;-67
2022/05/12 16:40:31;;;;;;;1.02;1.02;;;17.10;71.30;;;;;;6248472;28;20212;-68
2022/05/12 16:43:38;;;;;;;2.75;1.35;;;17.00;72.50;;;;;;6249645;28;20590;-67
2022/05/12 16:46:43;;;;;;;7.43;1.58;;;16.80;74.70;;;;;;6250084;28;20297;-67
2022/05/12 16:49:49;;;;;;;3.63;2.65;;;16.70;74.40;;;;;;6249485;28;20256;-67